sensor_id;sensor_type;location;lat;lon;timestamp;P1;durP1;ratioP1;P2;durP2;ratioP2
48623;SDS011;34422;45.802;16.114;2022-10-19T00:01:46;61.30;;;44.97;;
48623;SDS011;34422;45.802;16.114;2022-10-19T00:04:13;54.83;;;41.25;;
48623;SDS011;34422;45.802;16.114;2022-10-19T00:06:40;52.47;;;41.20;;
48623;SDS011;34422;45.802;16.114;2022-10-19T00:09:16;59.75;;;42.13;;
48623;SDS011;34422;45.802;16.114;2022-10-19T00:11:45;57.85;;;42.15;;
48623;SDS011;34422;45.802;16.114;2022-10-19T00:14:15;51.63;;;39.22;;
48623;SDS011;34422;45.802;16.114;2022-10-19T00:16:44;49.80;;;37.30;;
48623;SDS011;34422;45.802;16.114;2022-10-19T00:19:13;55.75;;;40.42;;
48623;SDS011;34422;45.802;16.114;2022-10-19T00:21:42;51.42;;;39.20;;
48623;SDS011;34422;45.802;16.114;2022-10-19T00:24:09;54.75;;;40.60;;
48623;SDS011;34422;45.802;16.114;2022-10-19T00:26:36;54.67;;;41.50;;
48623;SDS011;34422;45.802;16.114;2022-10-19T00:29:04;53.70;;;40.03;;
48623;SDS011;34422;45.802;16.114;2022-10-19T00:31:31;51.65;;;40.10;;
48623;SDS011;34422;45.802;16.114;2022-10-19T00:33:58;50.75;;;41.10;;
48623;SDS011;34422;45.802;16.114;2022-10-19T00:36:26;48.97;;;38.97;;
48623;SDS011;34422;45.802;16.114;2022-10-19T00:38:56;52.67;;;39.55;;
48623;SDS011;34422;45.802;16.114;2022-10-19T00:41:25;48.85;;;37.95;;
48623;SDS011;34422;45.802;16.114;2022-10-19T00:43:58;52.80;;;40.55;;
48623;SDS011;34422;45.802;16.114;2022-10-19T00:46:34;53.97;;;40.83;;
48623;SDS011;34422;45.802;16.114;2022-10-19T00:49:12;52.47;;;40.03;;
48623;SDS011;34422;45.802;16.114;2022-10-19T00:51:47;58.08;;;41.58;;
48623;SDS011;34422;45.802;16.114;2022-10-19T00:54:16;57.42;;;43.10;;
48623;SDS011;34422;45.802;16.114;2022-10-19T00:56:45;56.92;;;43.75;;
48623;SDS011;34422;45.802;16.114;2022-10-19T00:59:14;56.92;;;43.58;;
48623;SDS011;34422;45.802;16.114;2022-10-19T01:01:44;54.20;;;40.10;;
48623;SDS011;34422;45.802;16.114;2022-10-19T01:04:12;57.75;;;41.17;;
48623;SDS011;34422;45.802;16.114;2022-10-19T01:06:39;54.88;;;40.20;;
48623;SDS011;34422;45.802;16.114;2022-10-19T01:09:07;49.38;;;38.53;;
48623;SDS011;34422;45.802;16.114;2022-10-19T01:20:21;53.45;;;40.20;;
48623;SDS011;34422;45.802;16.114;2022-10-19T01:23:08;54.80;;;42.38;;
48623;SDS011;34422;45.802;16.114;2022-10-19T01:31:55;52.22;;;40.45;;
48623;SDS011;34422;45.802;16.114;2022-10-19T01:39:52;49.70;;;38.65;;
48623;SDS011;34422;45.802;16.114;2022-10-19T01:42:48;50.72;;;38.72;;
48623;SDS011;34422;45.802;16.114;2022-10-19T01:45:38;50.25;;;36.53;;
48623;SDS011;34422;45.802;16.114;2022-10-19T01:48:22;50.38;;;38.03;;
48623;SDS011;34422;45.802;16.114;2022-10-19T01:51:04;46.50;;;36.42;;
48623;SDS011;34422;45.802;16.114;2022-10-19T01:53:45;49.22;;;38.15;;
48623;SDS011;34422;45.802;16.114;2022-10-19T01:56:16;49.40;;;37.15;;
48623;SDS011;34422;45.802;16.114;2022-10-19T01:58:45;46.50;;;36.78;;
48623;SDS011;34422;45.802;16.114;2022-10-19T02:01:14;54.95;;;40.80;;
48623;SDS011;34422;45.802;16.114;2022-10-19T02:03:45;54.50;;;40.90;;
48623;SDS011;34422;45.802;16.114;2022-10-19T02:06:12;50.97;;;39.00;;
48623;SDS011;34422;45.802;16.114;2022-10-19T02:08:43;49.13;;;37.97;;
48623;SDS011;34422;45.802;16.114;2022-10-19T02:11:13;51.17;;;39.35;;
48623;SDS011;34422;45.802;16.114;2022-10-19T02:13:41;47.38;;;35.92;;
48623;SDS011;34422;45.802;16.114;2022-10-19T02:16:15;53.63;;;40.00;;
48623;SDS011;34422;45.802;16.114;2022-10-19T02:18:49;51.22;;;38.13;;
48623;SDS011;34422;45.802;16.114;2022-10-19T02:21:19;50.57;;;38.83;;
48623;SDS011;34422;45.802;16.114;2022-10-19T02:23:46;55.97;;;38.88;;
48623;SDS011;34422;45.802;16.114;2022-10-19T02:26:13;53.20;;;40.42;;
48623;SDS011;34422;45.802;16.114;2022-10-19T02:28:40;51.13;;;37.88;;
48623;SDS011;34422;45.802;16.114;2022-10-19T02:31:06;56.72;;;41.00;;
48623;SDS011;34422;45.802;16.114;2022-10-19T02:33:34;54.50;;;38.90;;
48623;SDS011;34422;45.802;16.114;2022-10-19T02:36:02;58.30;;;41.67;;
48623;SDS011;34422;45.802;16.114;2022-10-19T02:38:29;54.58;;;40.15;;
48623;SDS011;34422;45.802;16.114;2022-10-19T02:41:02;74.00;;;46.40;;
48623;SDS011;34422;45.802;16.114;2022-10-19T02:43:36;64.13;;;42.95;;
48623;SDS011;34422;45.802;16.114;2022-10-19T02:46:07;56.45;;;40.30;;
48623;SDS011;34422;45.802;16.114;2022-10-19T02:48:42;56.25;;;42.70;;
48623;SDS011;34422;45.802;16.114;2022-10-19T02:51:25;53.17;;;41.30;;
48623;SDS011;34422;45.802;16.114;2022-10-19T02:53:55;57.13;;;40.00;;
48623;SDS011;34422;45.802;16.114;2022-10-19T02:56:22;59.17;;;40.03;;
48623;SDS011;34422;45.802;16.114;2022-10-19T02:58:48;51.10;;;37.67;;
48623;SDS011;34422;45.802;16.114;2022-10-19T03:01:15;49.97;;;39.50;;
48623;SDS011;34422;45.802;16.114;2022-10-19T03:03:42;48.10;;;37.28;;
48623;SDS011;34422;45.802;16.114;2022-10-19T03:06:09;50.00;;;39.00;;
48623;SDS011;34422;45.802;16.114;2022-10-19T03:08:36;50.58;;;37.28;;
48623;SDS011;34422;45.802;16.114;2022-10-19T03:11:02;50.97;;;39.28;;
48623;SDS011;34422;45.802;16.114;2022-10-19T03:13:29;49.00;;;38.55;;
48623;SDS011;34422;45.802;16.114;2022-10-19T03:15:56;53.30;;;39.67;;
48623;SDS011;34422;45.802;16.114;2022-10-19T03:18:23;53.40;;;38.58;;
48623;SDS011;34422;45.802;16.114;2022-10-19T03:20:50;48.42;;;37.92;;
48623;SDS011;34422;45.802;16.114;2022-10-19T03:23:16;47.90;;;37.38;;
48623;SDS011;34422;45.802;16.114;2022-10-19T03:25:43;46.70;;;35.70;;
48623;SDS011;34422;45.802;16.114;2022-10-19T03:28:10;47.70;;;38.22;;
48623;SDS011;34422;45.802;16.114;2022-10-19T03:30:37;51.42;;;38.20;;
48623;SDS011;34422;45.802;16.114;2022-10-19T03:33:03;49.63;;;37.70;;
48623;SDS011;34422;45.802;16.114;2022-10-19T03:35:30;48.20;;;37.25;;
48623;SDS011;34422;45.802;16.114;2022-10-19T03:37:57;43.90;;;35.15;;
48623;SDS011;34422;45.802;16.114;2022-10-19T03:40:24;49.63;;;37.67;;
48623;SDS011;34422;45.802;16.114;2022-10-19T03:42:50;48.20;;;37.33;;
48623;SDS011;34422;45.802;16.114;2022-10-19T03:45:17;55.88;;;40.33;;
48623;SDS011;34422;45.802;16.114;2022-10-19T03:47:48;52.63;;;38.20;;
48623;SDS011;34422;45.802;16.114;2022-10-19T03:50:16;49.38;;;38.88;;
48623;SDS011;34422;45.802;16.114;2022-10-19T03:52:43;52.83;;;40.15;;
48623;SDS011;34422;45.802;16.114;2022-10-19T03:55:10;51.50;;;38.30;;
48623;SDS011;34422;45.802;16.114;2022-10-19T03:57:37;50.05;;;39.00;;
48623;SDS011;34422;45.802;16.114;2022-10-19T04:00:03;49.85;;;38.00;;
48623;SDS011;34422;45.802;16.114;2022-10-19T04:02:30;48.13;;;36.17;;
48623;SDS011;34422;45.802;16.114;2022-10-19T04:04:57;51.75;;;38.25;;
48623;SDS011;34422;45.802;16.114;2022-10-19T04:07:24;57.20;;;42.92;;
48623;SDS011;34422;45.802;16.114;2022-10-19T04:09:51;54.03;;;40.70;;
48623;SDS011;34422;45.802;16.114;2022-10-19T04:12:17;57.00;;;42.58;;
48623;SDS011;34422;45.802;16.114;2022-10-19T04:14:44;55.78;;;40.53;;
48623;SDS011;34422;45.802;16.114;2022-10-19T04:17:11;50.60;;;40.83;;
48623;SDS011;34422;45.802;16.114;2022-10-19T04:19:38;52.55;;;40.83;;
48623;SDS011;34422;45.802;16.114;2022-10-19T04:22:05;92.30;;;64.45;;
48623;SDS011;34422;45.802;16.114;2022-10-19T04:24:33;88.20;;;62.72;;
48623;SDS011;34422;45.802;16.114;2022-10-19T04:27:00;65.47;;;47.33;;
48623;SDS011;34422;45.802;16.114;2022-10-19T04:29:27;57.53;;;45.47;;
48623;SDS011;34422;45.802;16.114;2022-10-19T04:31:53;55.92;;;41.97;;
48623;SDS011;34422;45.802;16.114;2022-10-19T04:34:20;61.38;;;45.28;;
48623;SDS011;34422;45.802;16.114;2022-10-19T04:36:47;56.38;;;42.85;;
48623;SDS011;34422;45.802;16.114;2022-10-19T04:39:14;62.30;;;41.40;;
48623;SDS011;34422;45.802;16.114;2022-10-19T04:41:40;54.72;;;42.33;;
48623;SDS011;34422;45.802;16.114;2022-10-19T04:44:08;50.05;;;39.58;;
48623;SDS011;34422;45.802;16.114;2022-10-19T04:46:35;56.33;;;40.72;;
48623;SDS011;34422;45.802;16.114;2022-10-19T04:49:03;54.70;;;40.47;;
48623;SDS011;34422;45.802;16.114;2022-10-19T04:51:32;57.42;;;40.28;;
48623;SDS011;34422;45.802;16.114;2022-10-19T04:53:59;56.20;;;41.33;;
48623;SDS011;34422;45.802;16.114;2022-10-19T04:56:28;52.97;;;38.67;;
48623;SDS011;34422;45.802;16.114;2022-10-19T04:58:58;50.25;;;39.83;;
48623;SDS011;34422;45.802;16.114;2022-10-19T05:01:26;56.42;;;41.45;;
48623;SDS011;34422;45.802;16.114;2022-10-19T05:03:55;53.63;;;40.38;;
48623;SDS011;34422;45.802;16.114;2022-10-19T05:06:24;56.63;;;40.83;;
48623;SDS011;34422;45.802;16.114;2022-10-19T05:08:51;49.55;;;38.45;;
48623;SDS011;34422;45.802;16.114;2022-10-19T05:11:18;50.25;;;38.85;;
48623;SDS011;34422;45.802;16.114;2022-10-19T05:13:46;50.17;;;39.05;;
48623;SDS011;34422;45.802;16.114;2022-10-19T05:16:15;56.65;;;42.70;;
48623;SDS011;34422;45.802;16.114;2022-10-19T05:18:51;52.03;;;39.45;;
48623;SDS011;34422;45.802;16.114;2022-10-19T05:21:21;57.88;;;41.58;;
48623;SDS011;34422;45.802;16.114;2022-10-19T05:23:51;54.08;;;41.35;;
48623;SDS011;34422;45.802;16.114;2022-10-19T05:26:20;55.33;;;40.75;;
48623;SDS011;34422;45.802;16.114;2022-10-19T05:28:50;53.75;;;41.30;;
48623;SDS011;34422;45.802;16.114;2022-10-19T05:31:23;52.13;;;38.58;;
48623;SDS011;34422;45.802;16.114;2022-10-19T05:33:52;59.30;;;40.60;;
48623;SDS011;34422;45.802;16.114;2022-10-19T05:36:20;72.00;;;48.95;;
48623;SDS011;34422;45.802;16.114;2022-10-19T05:38:51;65.22;;;43.60;;
48623;SDS011;34422;45.802;16.114;2022-10-19T05:41:19;60.30;;;44.53;;
48623;SDS011;34422;45.802;16.114;2022-10-19T05:43:50;53.20;;;40.83;;
48623;SDS011;34422;45.802;16.114;2022-10-19T05:46:19;59.88;;;41.58;;
48623;SDS011;34422;45.802;16.114;2022-10-19T05:48:46;64.55;;;49.17;;
48623;SDS011;34422;45.802;16.114;2022-10-19T05:51:16;110.60;;;66.40;;
48623;SDS011;34422;45.802;16.114;2022-10-19T05:53:47;79.93;;;53.42;;
48623;SDS011;34422;45.802;16.114;2022-10-19T05:56:15;88.18;;;55.60;;
48623;SDS011;34422;45.802;16.114;2022-10-19T05:58:45;70.35;;;48.50;;
48623;SDS011;34422;45.802;16.114;2022-10-19T06:01:12;70.15;;;46.92;;
48623;SDS011;34422;45.802;16.114;2022-10-19T06:03:40;57.47;;;45.90;;
48623;SDS011;34422;45.802;16.114;2022-10-19T06:06:07;63.30;;;44.88;;
48623;SDS011;34422;45.802;16.114;2022-10-19T06:08:35;57.55;;;42.03;;
48623;SDS011;34422;45.802;16.114;2022-10-19T06:11:10;54.20;;;40.63;;
48623;SDS011;34422;45.802;16.114;2022-10-19T06:13:41;57.22;;;41.83;;
48623;SDS011;34422;45.802;16.114;2022-10-19T06:16:11;63.33;;;41.95;;
48623;SDS011;34422;45.802;16.114;2022-10-19T06:18:39;57.10;;;43.53;;
48623;SDS011;34422;45.802;16.114;2022-10-19T06:21:09;68.97;;;42.22;;
48623;SDS011;34422;45.802;16.114;2022-10-19T06:23:38;72.95;;;44.45;;
48623;SDS011;34422;45.802;16.114;2022-10-19T06:26:06;83.03;;;47.38;;
48623;SDS011;34422;45.802;16.114;2022-10-19T06:28:36;91.85;;;46.17;;
48623;SDS011;34422;45.802;16.114;2022-10-19T06:31:04;107.30;;;46.47;;
48623;SDS011;34422;45.802;16.114;2022-10-19T06:33:32;107.35;;;44.78;;
48623;SDS011;34422;45.802;16.114;2022-10-19T06:36:09;68.20;;;40.55;;
48623;SDS011;34422;45.802;16.114;2022-10-19T06:38:38;77.68;;;43.33;;
48623;SDS011;34422;45.802;16.114;2022-10-19T06:41:05;89.53;;;41.83;;
48623;SDS011;34422;45.802;16.114;2022-10-19T06:43:33;69.38;;;40.92;;
48623;SDS011;34422;45.802;16.114;2022-10-19T06:46:04;68.78;;;42.78;;
48623;SDS011;34422;45.802;16.114;2022-10-19T06:48:32;59.63;;;40.75;;
48623;SDS011;34422;45.802;16.114;2022-10-19T06:51:00;59.17;;;41.25;;
48623;SDS011;34422;45.802;16.114;2022-10-19T06:53:29;56.80;;;40.67;;
48623;SDS011;34422;45.802;16.114;2022-10-19T06:56:00;56.88;;;42.00;;
48623;SDS011;34422;45.802;16.114;2022-10-19T06:58:28;54.38;;;42.22;;
48623;SDS011;34422;45.802;16.114;2022-10-19T07:00:57;52.38;;;40.85;;
48623;SDS011;34422;45.802;16.114;2022-10-19T07:03:25;53.85;;;40.97;;
48623;SDS011;34422;45.802;16.114;2022-10-19T07:05:53;55.53;;;39.22;;
48623;SDS011;34422;45.802;16.114;2022-10-19T07:08:21;50.55;;;40.20;;
48623;SDS011;34422;45.802;16.114;2022-10-19T07:10:51;54.58;;;42.00;;
48623;SDS011;34422;45.802;16.114;2022-10-19T07:13:20;55.42;;;40.60;;
48623;SDS011;34422;45.802;16.114;2022-10-19T07:15:47;49.25;;;39.72;;
48623;SDS011;34422;45.802;16.114;2022-10-19T07:18:14;51.22;;;42.00;;
48623;SDS011;34422;45.802;16.114;2022-10-19T07:20:41;49.42;;;42.92;;
48623;SDS011;34422;45.802;16.114;2022-10-19T07:23:08;53.58;;;41.25;;
48623;SDS011;34422;45.802;16.114;2022-10-19T07:25:35;52.35;;;42.28;;
48623;SDS011;34422;45.802;16.114;2022-10-19T07:28:02;60.58;;;43.45;;
48623;SDS011;34422;45.802;16.114;2022-10-19T07:30:29;49.45;;;43.08;;
48623;SDS011;34422;45.802;16.114;2022-10-19T07:32:55;47.80;;;38.97;;
48623;SDS011;34422;45.802;16.114;2022-10-19T07:35:22;42.97;;;36.53;;
48623;SDS011;34422;45.802;16.114;2022-10-19T07:37:49;45.38;;;37.13;;
48623;SDS011;34422;45.802;16.114;2022-10-19T07:40:16;44.38;;;36.58;;
48623;SDS011;34422;45.802;16.114;2022-10-19T07:42:43;44.00;;;37.08;;
48623;SDS011;34422;45.802;16.114;2022-10-19T07:45:09;43.88;;;35.85;;
48623;SDS011;34422;45.802;16.114;2022-10-19T07:47:36;41.88;;;34.65;;
48623;SDS011;34422;45.802;16.114;2022-10-19T07:50:03;42.28;;;34.25;;
48623;SDS011;34422;45.802;16.114;2022-10-19T07:52:30;36.40;;;31.42;;
48623;SDS011;34422;45.802;16.114;2022-10-19T07:54:58;41.70;;;33.50;;
48623;SDS011;34422;45.802;16.114;2022-10-19T07:57:26;36.17;;;32.25;;
48623;SDS011;34422;45.802;16.114;2022-10-19T07:59:53;39.30;;;33.30;;
48623;SDS011;34422;45.802;16.114;2022-10-19T08:02:20;38.47;;;32.80;;
48623;SDS011;34422;45.802;16.114;2022-10-19T08:04:47;39.60;;;32.17;;
48623;SDS011;34422;45.802;16.114;2022-10-19T08:07:13;40.05;;;34.30;;
48623;SDS011;34422;45.802;16.114;2022-10-19T08:09:40;41.15;;;33.75;;
48623;SDS011;34422;45.802;16.114;2022-10-19T08:12:07;41.33;;;33.03;;
48623;SDS011;34422;45.802;16.114;2022-10-19T08:14:34;46.13;;;33.90;;
48623;SDS011;34422;45.802;16.114;2022-10-19T08:17:01;41.97;;;31.80;;
48623;SDS011;34422;45.802;16.114;2022-10-19T08:19:28;38.60;;;32.40;;
48623;SDS011;34422;45.802;16.114;2022-10-19T08:21:55;41.42;;;31.38;;
48623;SDS011;34422;45.802;16.114;2022-10-19T08:24:22;39.60;;;31.73;;
48623;SDS011;34422;45.802;16.114;2022-10-19T08:26:48;37.53;;;31.30;;
48623;SDS011;34422;45.802;16.114;2022-10-19T08:29:18;32.75;;;28.52;;
48623;SDS011;34422;45.802;16.114;2022-10-19T08:31:46;34.33;;;27.73;;
48623;SDS011;34422;45.802;16.114;2022-10-19T08:34:14;36.05;;;27.42;;
48623;SDS011;34422;45.802;16.114;2022-10-19T08:36:41;35.58;;;26.50;;
48623;SDS011;34422;45.802;16.114;2022-10-19T08:39:09;35.28;;;24.30;;
48623;SDS011;34422;45.802;16.114;2022-10-19T08:49:53;28.33;;;25.20;;
48623;SDS011;34422;45.802;16.114;2022-10-19T08:52:23;35.78;;;24.42;;
48623;SDS011;34422;45.802;16.114;2022-10-19T08:54:57;33.55;;;25.60;;
48623;SDS011;34422;45.802;16.114;2022-10-19T09:00:05;34.30;;;24.25;;
48623;SDS011;34422;45.802;16.114;2022-10-19T09:02:53;28.60;;;25.45;;
48623;SDS011;34422;45.802;16.114;2022-10-19T09:05:32;37.95;;;28.10;;
48623;SDS011;34422;45.802;16.114;2022-10-19T09:08:09;32.38;;;26.23;;
48623;SDS011;34422;45.802;16.114;2022-10-19T09:10:41;36.85;;;26.10;;
48623;SDS011;34422;45.802;16.114;2022-10-19T09:13:15;32.70;;;27.02;;
48623;SDS011;34422;45.802;16.114;2022-10-19T09:15:48;34.10;;;26.98;;
48623;SDS011;34422;45.802;16.114;2022-10-19T09:18:21;34.30;;;23.88;;
48623;SDS011;34422;45.802;16.114;2022-10-19T09:20:58;30.25;;;21.58;;
48623;SDS011;34422;45.802;16.114;2022-10-19T09:26:21;23.90;;;15.27;;
48623;SDS011;34422;45.802;16.114;2022-10-19T09:29:05;15.63;;;9.90;;
48623;SDS011;34422;45.802;16.114;2022-10-19T09:31:37;9.20;;;5.10;;
48623;SDS011;34422;45.802;16.114;2022-10-19T09:34:13;9.77;;;5.20;;
48623;SDS011;34422;45.802;16.114;2022-10-19T09:36:49;8.30;;;5.30;;
48623;SDS011;34422;45.802;16.114;2022-10-19T09:39:19;8.07;;;4.88;;
48623;SDS011;34422;45.802;16.114;2022-10-19T09:41:46;8.68;;;5.15;;
48623;SDS011;34422;45.802;16.114;2022-10-19T09:44:17;10.73;;;5.15;;
48623;SDS011;34422;45.802;16.114;2022-10-19T09:46:53;18.00;;;5.15;;
48623;SDS011;34422;45.802;16.114;2022-10-19T09:54:58;10.68;;;4.78;;
48623;SDS011;34422;45.802;16.114;2022-10-19T09:57:27;6.97;;;4.32;;
48623;SDS011;34422;45.802;16.114;2022-10-19T09:59:55;8.45;;;4.05;;
48623;SDS011;34422;45.802;16.114;2022-10-19T10:02:31;7.20;;;4.28;;
48623;SDS011;34422;45.802;16.114;2022-10-19T10:05:06;7.57;;;3.90;;
48623;SDS011;34422;45.802;16.114;2022-10-19T10:07:39;9.70;;;4.20;;
48623;SDS011;34422;45.802;16.114;2022-10-19T10:10:10;6.47;;;4.22;;
48623;SDS011;34422;45.802;16.114;2022-10-19T10:12:50;5.90;;;3.60;;
48623;SDS011;34422;45.802;16.114;2022-10-19T10:15:26;8.70;;;4.60;;
48623;SDS011;34422;45.802;16.114;2022-10-19T10:17:54;9.65;;;5.13;;
48623;SDS011;34422;45.802;16.114;2022-10-19T10:20:26;6.50;;;4.43;;
48623;SDS011;34422;45.802;16.114;2022-10-19T10:22:57;8.50;;;4.40;;
48623;SDS011;34422;45.802;16.114;2022-10-19T10:25:27;8.68;;;5.07;;
48623;SDS011;34422;45.802;16.114;2022-10-19T10:27:57;9.63;;;4.70;;
48623;SDS011;34422;45.802;16.114;2022-10-19T10:31:04;7.43;;;4.85;;
48623;SDS011;34422;45.802;16.114;2022-10-19T10:33:36;7.38;;;4.68;;
48623;SDS011;34422;45.802;16.114;2022-10-19T10:38:34;7.82;;;4.90;;
48623;SDS011;34422;45.802;16.114;2022-10-19T10:41:17;8.40;;;4.78;;
48623;SDS011;34422;45.802;16.114;2022-10-19T10:43:50;7.18;;;4.88;;
48623;SDS011;34422;45.802;16.114;2022-10-19T10:46:24;7.70;;;4.80;;
48623;SDS011;34422;45.802;16.114;2022-10-19T10:48:57;15.55;;;11.43;;
48623;SDS011;34422;45.802;16.114;2022-10-19T10:56:44;20.42;;;16.33;;
48623;SDS011;34422;45.802;16.114;2022-10-19T10:59:30;20.30;;;12.85;;
48623;SDS011;34422;45.802;16.114;2022-10-19T11:02:10;27.73;;;18.13;;
48623;SDS011;34422;45.802;16.114;2022-10-19T11:04:41;23.88;;;16.83;;
48623;SDS011;34422;45.802;16.114;2022-10-19T11:07:20;21.67;;;15.60;;
48623;SDS011;34422;45.802;16.114;2022-10-19T11:09:53;20.90;;;14.98;;
48623;SDS011;34422;45.802;16.114;2022-10-19T11:12:31;24.08;;;16.15;;
48623;SDS011;34422;45.802;16.114;2022-10-19T11:18:23;23.20;;;16.73;;
48623;SDS011;34422;45.802;16.114;2022-10-19T11:20:47;21.73;;;15.65;;
48623;SDS011;34422;45.802;16.114;2022-10-19T11:26:09;19.38;;;12.68;;
48623;SDS011;34422;45.802;16.114;2022-10-19T11:31:35;20.43;;;14.17;;
48623;SDS011;34422;45.802;16.114;2022-10-19T11:48:19;13.63;;;9.63;;
48623;SDS011;34422;45.802;16.114;2022-10-19T11:50:52;13.02;;;9.30;;
48623;SDS011;34422;45.802;16.114;2022-10-19T11:56:04;12.35;;;8.48;;
48623;SDS011;34422;45.802;16.114;2022-10-19T11:58:41;12.45;;;7.43;;
48623;SDS011;34422;45.802;16.114;2022-10-19T12:07:02;12.00;;;7.22;;
48623;SDS011;34422;45.802;16.114;2022-10-19T12:15:44;10.88;;;8.82;;
48623;SDS011;34422;45.802;16.114;2022-10-19T12:18:07;17.70;;;12.50;;
48623;SDS011;34422;45.802;16.114;2022-10-19T12:20:47;16.10;;;11.45;;
48623;SDS011;34422;45.802;16.114;2022-10-19T12:23:20;19.17;;;12.38;;
48623;SDS011;34422;45.802;16.114;2022-10-19T12:25:52;17.13;;;12.75;;
48623;SDS011;34422;45.802;16.114;2022-10-19T12:28:28;24.13;;;11.43;;
48623;SDS011;34422;45.802;16.114;2022-10-19T12:30:58;14.02;;;10.73;;
48623;SDS011;34422;45.802;16.114;2022-10-19T12:43:54;22.60;;;16.33;;
48623;SDS011;34422;45.802;16.114;2022-10-19T12:51:54;20.73;;;14.30;;
48623;SDS011;34422;45.802;16.114;2022-10-19T12:54:26;21.80;;;13.95;;
48623;SDS011;34422;45.802;16.114;2022-10-19T12:56:56;21.85;;;13.55;;
48623;SDS011;34422;45.802;16.114;2022-10-19T12:59:34;21.67;;;14.13;;
48623;SDS011;34422;45.802;16.114;2022-10-19T13:02:04;20.50;;;14.25;;
48623;SDS011;34422;45.802;16.114;2022-10-19T13:04:52;17.80;;;12.75;;
48623;SDS011;34422;45.802;16.114;2022-10-19T13:07:19;16.80;;;13.32;;
48623;SDS011;34422;45.802;16.114;2022-10-19T13:09:46;19.33;;;14.23;;
48623;SDS011;34422;45.802;16.114;2022-10-19T13:25:27;19.08;;;15.13;;
48623;SDS011;34422;45.802;16.114;2022-10-19T13:41:27;21.60;;;14.50;;
48623;SDS011;34422;45.802;16.114;2022-10-19T13:46:51;20.83;;;15.23;;
48623;SDS011;34422;45.802;16.114;2022-10-19T13:50:02;16.50;;;13.23;;
48623;SDS011;34422;45.802;16.114;2022-10-19T13:53:02;17.27;;;12.70;;
48623;SDS011;34422;45.802;16.114;2022-10-19T14:01:38;15.00;;;10.82;;
48623;SDS011;34422;45.802;16.114;2022-10-19T14:04:15;18.25;;;11.05;;
48623;SDS011;34422;45.802;16.114;2022-10-19T14:07:06;14.50;;;9.50;;
48623;SDS011;34422;45.802;16.114;2022-10-19T14:09:49;20.15;;;11.25;;
48623;SDS011;34422;45.802;16.114;2022-10-19T14:12:24;20.65;;;15.43;;
48623;SDS011;34422;45.802;16.114;2022-10-19T14:14:53;18.55;;;14.77;;
48623;SDS011;34422;45.802;16.114;2022-10-19T14:17:24;16.25;;;13.38;;
48623;SDS011;34422;45.802;16.114;2022-10-19T14:19:56;20.02;;;13.77;;
48623;SDS011;34422;45.802;16.114;2022-10-19T14:22:27;18.70;;;13.00;;
48623;SDS011;34422;45.802;16.114;2022-10-19T14:27:33;17.33;;;13.45;;
48623;SDS011;34422;45.802;16.114;2022-10-19T14:30:00;17.55;;;13.20;;
48623;SDS011;34422;45.802;16.114;2022-10-19T14:32:28;17.75;;;12.57;;
48623;SDS011;34422;45.802;16.114;2022-10-19T14:34:58;13.88;;;11.98;;
48623;SDS011;34422;45.802;16.114;2022-10-19T14:37:29;18.80;;;12.73;;
48623;SDS011;34422;45.802;16.114;2022-10-19T14:42:47;16.63;;;12.77;;
48623;SDS011;34422;45.802;16.114;2022-10-19T14:45:19;20.25;;;13.95;;
48623;SDS011;34422;45.802;16.114;2022-10-19T14:47:58;17.02;;;13.23;;
48623;SDS011;34422;45.802;16.114;2022-10-19T14:55:44;23.73;;;16.13;;
48623;SDS011;34422;45.802;16.114;2022-10-19T14:58:12;25.17;;;16.70;;
48623;SDS011;34422;45.802;16.114;2022-10-19T15:00:44;26.10;;;18.58;;
48623;SDS011;34422;45.802;16.114;2022-10-19T15:03:24;18.52;;;14.00;;
48623;SDS011;34422;45.802;16.114;2022-10-19T15:05:55;17.77;;;13.98;;
48623;SDS011;34422;45.802;16.114;2022-10-19T15:08:30;22.90;;;14.73;;
48623;SDS011;34422;45.802;16.114;2022-10-19T15:11:03;20.77;;;14.60;;
48623;SDS011;34422;45.802;16.114;2022-10-19T15:13:33;24.00;;;14.50;;
48623;SDS011;34422;45.802;16.114;2022-10-19T15:16:24;18.85;;;13.70;;
48623;SDS011;34422;45.802;16.114;2022-10-19T15:19:17;18.92;;;13.52;;
48623;SDS011;34422;45.802;16.114;2022-10-19T15:24:42;21.48;;;15.23;;
48623;SDS011;34422;45.802;16.114;2022-10-19T15:27:27;22.63;;;16.15;;
48623;SDS011;34422;45.802;16.114;2022-10-19T15:35:37;28.35;;;18.08;;
48623;SDS011;34422;45.802;16.114;2022-10-19T15:40:57;18.73;;;14.30;;
48623;SDS011;34422;45.802;16.114;2022-10-19T15:48:27;27.87;;;14.53;;
48623;SDS011;34422;45.802;16.114;2022-10-19T15:53:52;18.20;;;13.63;;
48623;SDS011;34422;45.802;16.114;2022-10-19T15:56:21;20.25;;;15.15;;
48623;SDS011;34422;45.802;16.114;2022-10-19T15:58:50;20.23;;;15.57;;
48623;SDS011;34422;45.802;16.114;2022-10-19T16:01:19;21.10;;;15.50;;
48623;SDS011;34422;45.802;16.114;2022-10-19T16:03:50;27.00;;;20.05;;
48623;SDS011;34422;45.802;16.114;2022-10-19T16:06:18;32.13;;;22.63;;
48623;SDS011;34422;45.802;16.114;2022-10-19T16:08:46;28.67;;;22.10;;
48623;SDS011;34422;45.802;16.114;2022-10-19T16:11:17;30.23;;;20.70;;
48623;SDS011;34422;45.802;16.114;2022-10-19T16:13:45;26.92;;;20.20;;
48623;SDS011;34422;45.802;16.114;2022-10-19T16:16:14;26.48;;;19.67;;
48623;SDS011;34422;45.802;16.114;2022-10-19T16:18:53;26.55;;;19.95;;
48623;SDS011;34422;45.802;16.114;2022-10-19T16:21:22;28.35;;;20.42;;
48623;SDS011;34422;45.802;16.114;2022-10-19T16:23:51;27.13;;;19.00;;
48623;SDS011;34422;45.802;16.114;2022-10-19T16:26:18;29.20;;;19.38;;
48623;SDS011;34422;45.802;16.114;2022-10-19T16:28:45;25.95;;;18.58;;
48623;SDS011;34422;45.802;16.114;2022-10-19T16:31:14;28.90;;;20.75;;
48623;SDS011;34422;45.802;16.114;2022-10-19T16:33:42;28.40;;;21.52;;
48623;SDS011;34422;45.802;16.114;2022-10-19T16:36:08;25.23;;;19.58;;
48623;SDS011;34422;45.802;16.114;2022-10-19T16:38:35;39.08;;;24.73;;
48623;SDS011;34422;45.802;16.114;2022-10-19T16:41:03;51.70;;;31.27;;
48623;SDS011;34422;45.802;16.114;2022-10-19T16:43:32;51.08;;;27.80;;
48623;SDS011;34422;45.802;16.114;2022-10-19T16:45:59;42.78;;;25.65;;
48623;SDS011;34422;45.802;16.114;2022-10-19T16:48:26;36.25;;;22.42;;
48623;SDS011;34422;45.802;16.114;2022-10-19T16:53:32;27.23;;;20.65;;
48623;SDS011;34422;45.802;16.114;2022-10-19T16:56:10;35.70;;;23.40;;
48623;SDS011;34422;45.802;16.114;2022-10-19T16:58:38;33.30;;;22.23;;
48623;SDS011;34422;45.802;16.114;2022-10-19T17:01:10;35.05;;;22.30;;
48623;SDS011;34422;45.802;16.114;2022-10-19T17:03:42;29.85;;;19.90;;
48623;SDS011;34422;45.802;16.114;2022-10-19T17:06:10;35.70;;;22.10;;
48623;SDS011;34422;45.802;16.114;2022-10-19T17:08:37;28.27;;;20.75;;
48623;SDS011;34422;45.802;16.114;2022-10-19T17:11:38;34.13;;;21.50;;
48623;SDS011;34422;45.802;16.114;2022-10-19T17:14:04;30.33;;;22.48;;
48623;SDS011;34422;45.802;16.114;2022-10-19T17:16:33;33.22;;;23.02;;
48623;SDS011;34422;45.802;16.114;2022-10-19T17:19:02;27.23;;;20.48;;
48623;SDS011;34422;45.802;16.114;2022-10-19T17:21:31;30.85;;;21.58;;